Time;durP1;ratioP1;P1;durP2;ratioP2;P2;SDS_P1;SDS_P2;PMS_P1;PMS_P2;Temp;Humidity;BMP_temperature;BMP_pressure;BME280_temperature;BME280_humidity;BME280_pressure;Samples;Min_cycle;Max_cycle;Signal;HPM_P1;HPM_P2
2023/09/14 00:00:43;;;;;;;;;;;;;;;15.69;100.00;99918.03;5054113;28;828;-59
2023/09/14 00:03:10;;;;;;;;;;;;;;;15.66;100.00;99913.31;5054339;28;851;-60
2023/09/14 00:05:44;;;;;;;;;;;;;;;15.62;100.00;99910.66;5054383;28;875;-60
2023/09/14 00:08:12;;;;;;;;;;;;;;;15.63;100.00;99911.41;5053918;28;832;-60
2023/09/14 00:10:39;;;;;;;;;;;;;;;15.63;100.00;99914.22;5053975;28;872;-60
2023/09/14 00:13:08;;;;;;;;;;;;;;;15.64;100.00;99915.75;5053784;28;1040;-60
2023/09/14 00:15:35;;;;;;;;;;;;;;;15.63;100.00;99911.41;5053620;28;1487;-60
2023/09/14 00:18:03;;;;;;;;;;;;;;;15.60;100.00;99912.31;5054188;28;811;-60
2023/09/14 00:20:30;;;;;;;;;;;;;;;15.60;100.00;99912.31;5053745;28;1257;-60
2023/09/14 00:22:58;;;;;;;;;;;;;;;15.59;100.00;99910.72;5053849;28;832;-60
2023/09/14 00:25:26;;;;;;;;;;;;;;;15.57;100.00;99911.16;5053737;28;1910;-60
2023/09/14 00:27:57;;;;;;;;;;;;;;;15.54;100.00;99917.59;5053792;28;816;-60
2023/09/14 00:30:24;;;;;;;;;;;;;;;15.52;100.00;99920.03;5053056;28;997;-60
2023/09/14 00:32:52;;;;;;;;;;;;;;;15.51;100.00;99907.31;5053833;28;878;-61
2023/09/14 00:35:20;;;;;;;;;;;;;;;15.51;100.00;99913.69;5053543;28;848;-60
2023/09/14 00:37:47;;;;;;;;;;;;;;;15.51;100.00;99919.25;5053460;28;905;-60
2023/09/14 00:40:14;;;;;;;;;;;;;;;15.51;100.00;99916.47;5053469;28;829;-60
2023/09/14 00:42:46;;;;;;;;;;;;;;;15.54;100.00;99908.47;5053426;28;879;-60
2023/09/14 00:45:17;;;;;;;;;;;;;;;15.52;100.00;99904.09;5053604;28;1947;-60
2023/09/14 00:47:52;;;;;;;;;;;;;;;15.52;100.00;99909.66;5053220;28;859;-60
2023/09/14 00:50:20;;;;;;;;;;;;;;;15.51;100.00;99902.53;5053184;28;891;-60
2023/09/14 00:52:58;;;;;;;;;;;;;;;15.49;100.00;99909.75;5053132;28;845;-60
2023/09/14 00:55:27;;;;;;;;;;;;;;;15.46;100.00;99905.03;5052955;28;848;-60
2023/09/14 00:57:55;;;;;;;;;;;;;;;15.42;100.00;99905.13;5053068;28;863;-60
2023/09/14 01:00:22;;;;;;;;;;;;;;;15.37;100.00;99899.31;5053003;28;832;-60
2023/09/14 01:02:52;;;;;;;;;;;;;;;15.31;100.00;99905.38;5053012;28;1035;-60
2023/09/14 01:05:20;;;;;;;;;;;;;;;15.24;100.00;99901.97;5052907;28;1967;-60
2023/09/14 01:07:47;;;;;;;;;;;;;;;15.22;100.00;99901.63;5053092;28;883;-60
2023/09/14 01:10:15;;;;;;;;;;;;;;;15.19;100.00;99900.50;5052936;28;820;-60
2023/09/14 01:12:43;;;;;;;;;;;;;;;15.06;100.00;99896.78;5052908;28;985;-60
2023/09/14 01:15:15;;;;;;;;;;;;;;;14.91;100.00;99896.31;5052707;28;1285;-60
2023/09/14 01:17:50;;;;;;;;;;;;;;;14.76;100.00;99901.38;5034784;28;1184;-60
2023/09/14 01:20:19;;;;;;;;;;;;;;;14.66;100.00;99894.06;5052694;28;824;-60
2023/09/14 01:22:55;;;;;;;;;;;;;;;14.59;100.00;99894.97;5052663;28;894;-60
2023/09/14 01:28:26;;;;;;;;;;;;;;;14.52;100.00;99900.66;5052708;28;810;-60
2023/09/14 01:30:54;;;;;;;;;;;;;;;14.56;100.00;99895.06;5052481;28;910;-61
2023/09/14 01:33:24;;;;;;;;;;;;;;;14.56;100.00;99895.06;5034605;28;856;-60
2023/09/14 01:35:54;;;;;;;;;;;;;;;14.49;100.00;99891.16;5052326;28;883;-60
2023/09/14 01:38:22;;;;;;;;;;;;;;;14.45;100.00;99893.22;5052299;28;855;-60
2023/09/14 01:40:50;;;;;;;;;;;;;;;14.43;100.00;99897.66;5051610;28;814;-60
2023/09/14 01:43:17;;;;;;;;;;;;;;;14.38;100.00;99893.38;5052374;28;1890;-60
2023/09/14 01:45:44;;;;;;;;;;;;;;;14.39;100.00;99903.28;5052378;28;870;-60
2023/09/14 01:48:18;;;;;;;;;;;;;;;14.45;100.00;99903.56;5052141;28;820;-60
2023/09/14 01:50:45;;;;;;;;;;;;;;;14.49;100.00;99905.06;5052069;28;911;-60
2023/09/14 01:53:12;;;;;;;;;;;;;;;14.56;100.00;99904.19;5052000;28;819;-61
2023/09/14 01:55:39;;;;;;;;;;;;;;;14.60;100.00;99913.25;5052069;28;883;-60
2023/09/14 01:58:06;;;;;;;;;;;;;;;14.59;100.00;99903.31;5051987;28;811;-60
2023/09/14 02:00:33;;;;;;;;;;;;;;;14.56;100.00;99908.97;5052249;28;866;-60
2023/09/14 02:03:00;;;;;;;;;;;;;;;14.54;100.00;99905.78;5051899;28;850;-60
2023/09/14 02:05:28;;;;;;;;;;;;;;;14.52;100.00;99899.88;5051851;28;1882;-60
2023/09/14 02:07:55;;;;;;;;;;;;;;;14.53;100.00;99901.44;5051901;28;829;-60
2023/09/14 02:10:22;;;;;;;;;;;;;;;14.60;100.00;99890.22;5051852;28;886;-60
2023/09/14 02:12:49;;;;;;;;;;;;;;;14.66;100.00;99892.06;5051857;28;963;-60
2023/09/14 02:15:17;;;;;;;;;;;;;;;14.64;100.00;99894.47;5051708;28;1354;-60
2023/09/14 02:17:44;;;;;;;;;;;;;;;14.57;100.00;99896.59;5051722;28;808;-60
2023/09/14 02:20:12;;;;;;;;;;;;;;;14.44;100.00;99890.88;5051689;28;819;-60
2023/09/14 02:22:39;;;;;;;;;;;;;;;14.36;100.00;99900.56;5051622;28;1384;-60
2023/09/14 02:25:07;;;;;;;;;;;;;;;14.27;100.00;99890.00;5051641;28;1906;-60
2023/09/14 02:27:35;;;;;;;;;;;;;;;14.24;100.00;99888.84;5051872;28;1279;-60
2023/09/14 02:30:03;;;;;;;;;;;;;;;14.17;100.00;99891.78;5051766;28;887;-60
2023/09/14 02:32:30;;;;;;;;;;;;;;;14.16;100.00;99903.31;5051612;28;883;-60
2023/09/14 02:34:57;;;;;;;;;;;;;;;14.14;100.00;99891.84;5051612;28;897;-61
2023/09/14 02:37:25;;;;;;;;;;;;;;;14.08;100.00;99892.34;5051593;28;813;-60
2023/09/14 02:39:51;;;;;;;;;;;;;;;14.11;100.00;99889.91;5051536;28;875;-60
2023/09/14 02:42:19;;;;;;;;;;;;;;;14.13;100.00;99885.50;5051487;28;883;-61
2023/09/14 02:44:47;;;;;;;;;;;;;;;14.13;100.00;99896.63;5051421;28;1882;-60
2023/09/14 02:47:14;;;;;;;;;;;;;;;14.13;100.00;99893.06;5051483;28;832;-60
2023/09/14 02:49:42;;;;;;;;;;;;;;;14.12;100.00;99894.25;5051381;28;877;-61
2023/09/14 02:52:09;;;;;;;;;;;;;;;14.07;100.00;99885.19;5051722;28;832;-60
2023/09/14 02:54:36;;;;;;;;;;;;;;;14.02;100.00;99884.91;5055500;28;855;-60
2023/09/14 02:57:04;;;;;;;;;;;;;;;13.96;100.00;99876.25;5055338;28;946;-60
2023/09/14 02:59:31;;;;;;;;;;;;;;;13.95;100.00;99874.69;5055393;28;828;-60
2023/09/14 03:01:58;;;;;;;;;;;;;;;13.96;100.00;99873.47;5055367;28;910;-60
2023/09/14 03:04:25;;;;;;;;;;;;;;;13.92;100.00;99880.31;5055316;28;1886;-60
2023/09/14 03:06:54;;;;;;;;;;;;;;;13.81;100.00;99877.72;5055151;28;867;-60
2023/09/14 03:09:21;;;;;;;;;;;;;;;13.73;100.00;99877.06;5055073;28;852;-61
2023/09/14 03:11:48;;;;;;;;;;;;;;;13.71;100.00;99887.00;5055128;28;829;-60
2023/09/14 03:14:16;;;;;;;;;;;;;;;13.69;100.00;99879.88;5055071;28;1194;-60
2023/09/14 03:16:43;;;;;;;;;;;;;;;13.65;100.00;99873.59;5037084;28;1335;-60
2023/09/14 03:19:10;;;;;;;;;;;;;;;13.63;100.00;99878.81;5054925;28;1001;-60
2023/09/14 03:21:36;;;;;;;;;;;;;;;13.59;100.00;99877.28;5037036;28;1389;-61
2023/09/14 03:24:03;;;;;;;;;;;;;;;13.58;100.00;99873.72;5054726;28;1874;-61
2023/09/14 03:26:30;;;;;;;;;;;;;;;13.57;100.00;99880.50;5054800;28;829;-60
2023/09/14 03:28:57;;;;;;;;;;;;;;;13.60;100.00;99885.19;5054687;28;900;-60
2023/09/14 03:31:25;;;;;;;;;;;;;;;13.55;100.00;99884.88;5054718;28;864;-60
2023/09/14 03:33:52;;;;;;;;;;;;;;;13.53;100.00;99885.31;5036777;28;1200;-60
2023/09/14 03:36:19;;;;;;;;;;;;;;;13.48;100.00;99889.34;5054842;28;903;-60
2023/09/14 03:38:46;;;;;;;;;;;;;;;13.46;100.00;99899.28;5054633;28;800;-60
2023/09/14 03:41:14;;;;;;;;;;;;;;;13.47;100.00;99892.53;5054528;28;887;-60
2023/09/14 03:43:42;;;;;;;;;;;;;;;13.49;100.00;99898.47;5054364;28;1878;-60
2023/09/14 03:46:10;;;;;;;;;;;;;;;13.54;100.00;99897.19;5054500;28;886;-60
2023/09/14 03:48:37;;;;;;;;;;;;;;;13.52;100.00;99889.28;5054489;28;832;-60
2023/09/14 03:51:05;;;;;;;;;;;;;;;13.53;100.00;99893.66;5054321;28;888;-60
2023/09/14 03:53:33;;;;;;;;;;;;;;;13.57;100.00;99888.81;5036289;28;1168;-61
2023/09/14 03:56:00;;;;;;;;;;;;;;;13.63;100.00;99889.13;5054216;28;860;-60
2023/09/14 03:58:27;;;;;;;;;;;;;;;13.66;100.00;99891.84;5054386;28;840;-61
2023/09/14 04:00:55;;;;;;;;;;;;;;;13.77;100.00;99890.88;5054187;28;859;-60
2023/09/14 04:03:22;;;;;;;;;;;;;;;13.84;100.00;99897.09;5053782;28;1878;-60
2023/09/14 04:05:48;;;;;;;;;;;;;;;13.85;100.00;99907.00;5053434;28;871;-60
2023/09/14 04:08:16;;;;;;;;;;;;;;;13.86;100.00;99905.78;5053964;28;879;-60
2023/09/14 04:10:43;;;;;;;;;;;;;;;13.88;100.00;99911.72;5054201;28;836;-60
2023/09/14 04:13:27;;;;;;;;;;;;;;;13.88;100.00;99908.16;5054139;28;949;-60
2023/09/14 04:15:54;;;;;;;;;;;;;;;13.88;100.00;99900.59;5053765;28;1268;-60
2023/09/14 04:18:22;;;;;;;;;;;;;;;13.94;100.00;99902.91;5054130;28;883;-60
2023/09/14 04:20:50;;;;;;;;;;;;;;;13.99;100.00;99903.19;5053728;28;836;-60
2023/09/14 04:23:17;;;;;;;;;;;;;;;14.04;100.00;99902.72;5053649;28;895;-60
2023/09/14 04:25:46;;;;;;;;;;;;;;;14.09;100.00;99905.00;5053709;28;1969;-60
2023/09/14 04:28:15;;;;;;;;;;;;;;;14.15;100.00;99902.53;5053879;28;836;-60
2023/09/14 04:30:46;;;;;;;;;;;;;;;14.22;100.00;99905.16;5035729;28;962;-60
2023/09/14 04:33:15;;;;;;;;;;;;;;;14.33;100.00;99904.19;5053781;28;943;-60
2023/09/14 04:35:42;;;;;;;;;;;;;;;14.41;100.00;99911.97;5053630;28;863;-60
2023/09/14 04:38:08;;;;;;;;;;;;;;;14.50;100.00;99912.19;5053577;28;961;-60
2023/09/14 04:40:43;;;;;;;;;;;;;;;14.60;100.00;99910.44;5053686;28;840;-61
2023/09/14 04:43:10;;;;;;;;;;;;;;;14.76;100.00;99906.94;5053383;28;875;-60
2023/09/14 04:45:38;;;;;;;;;;;;;;;14.96;100.00;99909.72;5053147;28;1967;-60
2023/09/14 04:48:05;;;;;;;;;;;;;;;15.14;100.00;99914.13;5035663;28;1192;-60
2023/09/14 04:50:33;;;;;;;;;;;;;;;15.26;100.00;99916.25;5053055;28;934;-60
2023/09/14 04:53:00;;;;;;;;;;;;;;;15.34;100.00;99926.03;5053228;28;823;-60
2023/09/14 04:55:27;;;;;;;;;;;;;;;15.42;100.00;99921.06;5052997;28;828;-60
2023/09/14 04:57:54;;;;;;;;;;;;;;;15.49;100.00;99927.25;5053204;28;820;-60
2023/09/14 05:00:22;;;;;;;;;;;;;;;15.59;100.00;99925.41;5053059;28;875;-60
2023/09/14 05:02:49;;;;;;;;;;;;;;;15.73;100.00;99929.13;5053061;28;824;-60
2023/09/14 05:05:16;;;;;;;;;;;;;;;15.86;100.00;99924.44;5052899;28;1945;-60
2023/09/14 05:07:43;;;;;;;;;;;;;;;16.01;100.00;99917.28;5052878;28;863;-60
2023/09/14 05:10:11;;;;;;;;;;;;;;;16.17;100.00;99916.47;5053047;28;869;-60
2023/09/14 05:12:37;;;;;;;;;;;;;;;16.32;100.00;99922.44;5052883;28;1047;-60
2023/09/14 05:15:04;;;;;;;;;;;;;;;16.49;100.00;99924.00;5052535;28;1404;-60
2023/09/14 05:17:31;;;;;;;;;;;;;;;16.64;100.00;99924.38;5052628;28;871;-60
2023/09/14 05:19:58;;;;;;;;;;;;;;;16.76;100.00;99919.28;5052758;28;891;-60
2023/09/14 05:22:28;;;;;;;;;;;;;;;16.89;100.00;99920.13;5052570;28;860;-60
2023/09/14 05:24:55;;;;;;;;;;;;;;;17.07;100.00;99916.78;5052516;28;2017;-60
2023/09/14 05:27:22;;;;;;;;;;;;;;;17.27;100.00;99914.59;5052603;28;836;-60
2023/09/14 05:29:49;;;;;;;;;;;;;;;17.46;100.00;99915.59;5052459;28;859;-60
2023/09/14 05:32:17;;;;;;;;;;;;;;;17.60;100.00;99913.59;5052474;28;899;-60
2023/09/14 05:34:44;;;;;;;;;;;;;;;17.71;100.00;99909.22;5051104;28;1299;-60
2023/09/14 05:37:10;;;;;;;;;;;;;;;17.84;100.00;99905.66;5052383;28;965;-60
2023/09/14 05:39:38;;;;;;;;;;;;;;;18.01;100.00;99909.88;5052296;28;824;-60
2023/09/14 05:42:05;;;;;;;;;;;;;;;18.25;100.00;99907.44;5052279;28;879;-60
2023/09/14 05:44:32;;;;;;;;;;;;;;;18.48;100.00;99909.03;5052247;28;1885;-60
2023/09/14 05:47:01;;;;;;;;;;;;;;;18.66;100.00;99910.41;5052180;28;976;-60
2023/09/14 05:49:28;;;;;;;;;;;;;;;18.83;100.00;99917.41;5052050;28;824;-60
2023/09/14 05:51:55;;;;;;;;;;;;;;;18.94;100.00;99917.78;5052052;28;812;-59
2023/09/14 05:54:22;;;;;;;;;;;;;;;19.08;100.00;99913.69;5052113;28;843;-57
2023/09/14 05:56:49;;;;;;;;;;;;;;;19.18;100.00;99906.88;5051957;28;855;-60
2023/09/14 05:59:16;;;;;;;;;;;;;;;19.33;100.00;99901.50;5051981;28;891;-59
2023/09/14 06:01:43;;;;;;;;;;;;;;;19.58;100.00;99891.31;5051891;28;840;-60
2023/09/14 06:04:10;;;;;;;;;;;;;;;19.91;100.00;99902.03;5051901;28;1949;-60
2023/09/14 06:06:37;;;;;;;;;;;;;;;20.07;100.00;99898.91;5051792;28;879;-60
2023/09/14 06:09:04;;;;;;;;;;;;;;;20.33;100.00;99904.22;5051900;28;835;-60
2023/09/14 06:11:30;;;;;;;;;;;;;;;20.54;100.00;99896.91;5051948;28;816;-60
2023/09/14 06:13:57;;;;;;;;;;;;;;;20.74;100.00;99900.03;5051970;28;1076;-60
2023/09/14 06:16:25;;;;;;;;;;;;;;;20.91;100.00;99906.09;5051703;28;867;-58
2023/09/14 06:18:52;;;;;;;;;;;;;;;21.09;100.00;99912.91;5051961;28;899;-60
2023/09/14 06:21:20;;;;;;;;;;;;;;;21.22;100.00;99913.50;5051703;28;839;-59
2023/09/14 06:23:49;;;;;;;;;;;;;;;21.41;100.00;99917.03;5051661;28;1918;-59
2023/09/14 06:26:16;;;;;;;;;;;;;;;21.50;100.00;99916.22;5051823;28;1268;-60
2023/09/14 06:28:43;;;;;;;;;;;;;;;21.56;100.00;99919.97;5051294;28;855;-60
2023/09/14 06:31:10;;;;;;;;;;;;;;;21.76;100.00;99923.00;5051805;28;863;-60
2023/09/14 06:33:37;;;;;;;;;;;;;;;21.73;100.00;99920.34;5051801;28;883;-60
2023/09/14 06:36:04;;;;;;;;;;;;;;;21.93;100.00;99914.91;5051831;28;863;-60
2023/09/14 06:38:31;;;;;;;;;;;;;;;22.22;100.00;99922.72;5051665;28;1265;-59
2023/09/14 06:40:59;;;;;;;;;;;;;;;22.45;100.00;99928.81;5051791;28;883;-59
2023/09/14 07:14:23;;;;;;;;;;;;;;;28.57;88.89;99940.94;4989260;28;1615;-59
2023/09/14 07:16:50;;;;;;;;;;;;;;;28.66;87.77;99946.31;4992258;28;867;-59
2023/09/14 07:19:17;;;;;;;;;;;;;;;28.87;85.81;99951.63;4991995;28;926;-59
2023/09/14 07:21:44;;;;;;;;;;;;;;;28.91;77.71;99941.50;4992111;28;971;-59
2023/09/14 07:24:11;;;;;;;;;;;;;;;28.56;76.43;99942.22;4992123;28;2001;-59
2023/09/14 07:26:39;;;;;;;;;;;;;;;28.43;77.37;99942.00;4992158;28;887;-59
2023/09/14 07:29:06;;;;;;;;;;;;;;;28.73;76.07;99938.53;4991913;28;862;-60
2023/09/14 07:31:34;;;;;;;;;;;;;;;29.16;74.91;99940.84;4991951;28;816;-59
2023/09/14 07:34:01;;;;;;;;;;;;;;;29.39;73.50;99941.44;4991832;28;872;-59
2023/09/14 07:36:28;;;;;;;;;;;;;;;29.66;72.94;99937.53;4991821;28;1060;-59
2023/09/14 07:38:55;;;;;;;;;;;;;;;29.63;71.69;99937.84;4991872;28;903;-59
2023/09/14 07:41:22;;;;;;;;;;;;;;;29.62;71.39;99936.31;4995263;28;836;-59
2023/09/14 07:43:49;;;;;;;;;;;;;;;29.46;70.41;99941.59;4995050;28;1910;-59
2023/09/14 07:46:15;;;;;;;;;;;;;;;29.46;71.13;99935.91;4995268;28;813;-59
2023/09/14 07:48:42;;;;;;;;;;;;;;;29.39;71.47;99927.97;4995193;28;871;-59
2023/09/14 07:51:10;;;;;;;;;;;;;;;29.59;70.63;99929.56;4995142;28;840;-59
2023/09/14 07:53:37;;;;;;;;;;;;;;;29.66;70.37;99928.22;4995032;28;941;-59
2023/09/14 07:56:04;;;;;;;;;;;;;;;29.69;70.44;99930.81;4995024;28;903;-59
2023/09/14 07:58:31;;;;;;;;;;;;;;;29.97;69.23;99935.44;4994896;28;903;-60
2023/09/14 08:00:57;;;;;;;;;;;;;;;29.84;68.74;99936.09;4994975;28;895;-57
2023/09/14 08:03:25;;;;;;;;;;;;;;;29.55;69.40;99931.94;4994838;28;812;-59
2023/09/14 08:05:52;;;;;;;;;;;;;;;29.57;70.19;99934.25;4994864;28;1882;-59
2023/09/14 08:08:19;;;;;;;;;;;;;;;29.71;69.79;99933.13;4994628;28;817;-59
2023/09/14 08:10:50;;;;;;;;;;;;;;;29.91;68.15;99935.50;4994857;28;847;-60
2023/09/14 08:13:16;;;;;;;;;;;;;;;29.90;68.11;99931.09;4994609;28;1212;-59
2023/09/14 08:15:44;;;;;;;;;;;;;;;29.73;67.74;99921.97;4994776;28;832;-59
2023/09/14 08:18:11;;;;;;;;;;;;;;;29.70;68.56;99920.97;4994553;28;844;-60
2023/09/14 08:20:39;;;;;;;;;;;;;;;30.06;66.99;99917.19;4994470;28;880;-60
2023/09/14 08:23:06;;;;;;;;;;;;;;;30.04;66.47;99914.09;4977009;28;1038;-60
2023/09/14 08:25:35;;;;;;;;;;;;;;;30.23;64.87;99919.84;4994423;28;1910;-59
2023/09/14 08:28:03;;;;;;;;;;;;;;;30.05;64.54;99910.72;4994434;28;884;-57
2023/09/14 08:30:29;;;;;;;;;;;;;;;29.98;61.05;99914.19;4994330;28;848;-60
2023/09/14 08:32:57;;;;;;;;;;;;;;;29.92;60.63;99908.53;4994255;28;895;-59
2023/09/14 08:35:27;;;;;;;;;;;;;;;30.06;59.03;99902.94;4994286;28;900;-59
2023/09/14 08:37:56;;;;;;;;;;;;;;;30.24;56.46;99910.00;4994249;28;887;-57
2023/09/14 08:40:24;;;;;;;;;;;;;;;30.23;56.27;99897.78;4994144;28;876;-57
2023/09/14 08:42:52;;;;;;;;;;;;;;;30.41;53.35;99896.31;4993987;28;891;-59
2023/09/14 08:45:28;;;;;;;;;;;;;;;30.25;48.78;99895.19;4993992;28;1886;-57
2023/09/14 08:47:56;;;;;;;;;;;;;;;30.42;48.38;99900.69;4994137;28;884;-57
2023/09/14 08:50:28;;;;;;;;;;;;;;;30.54;46.86;99898.47;4993675;28;833;-57
2023/09/14 08:52:56;;;;;;;;;;;;;;;30.66;45.08;99894.16;4993905;28;880;-57
2023/09/14 08:55:29;;;;;;;;;;;;;;;30.71;42.15;99893.28;4993968;28;817;-57
2023/09/14 08:57:56;;;;;;;;;;;;;;;30.66;40.52;99897.00;4993890;28;836;-57
2023/09/14 09:00:26;;;;;;;;;;;;;;;30.46;39.92;99894.69;4993840;28;867;-57
2023/09/14 09:02:53;;;;;;;;;;;;;;;30.04;40.17;99888.47;4994245;28;850;-57
2023/09/14 09:05:21;;;;;;;;;;;;;;;29.98;40.81;99885.69;4993778;28;1946;-57
2023/09/14 09:07:48;;;;;;;;;;;;;;;30.03;41.41;99889.78;4993719;28;800;-57
2023/09/14 09:10:22;;;;;;;;;;;;;;;29.80;41.41;99894.97;4993569;28;812;-57
2023/09/14 09:12:51;;;;;;;;;;;;;;;29.73;42.46;99878.47;4993417;28;1350;-57
2023/09/14 09:15:18;;;;;;;;;;;;;;;29.80;41.58;99883.56;4993579;28;820;-59
2023/09/14 09:17:45;;;;;;;;;;;;;;;29.97;42.26;99887.00;4993519;28;828;-57
2023/09/14 09:20:19;;;;;;;;;;;;;;;29.91;41.20;99887.06;4993314;28;816;-57
2023/09/14 09:22:46;;;;;;;;;;;;;;;29.75;40.79;99879.50;4993437;28;892;-57
2023/09/14 09:25:13;;;;;;;;;;;;;;;29.68;40.94;99874.34;4993269;28;1910;-57
2023/09/14 09:27:41;;;;;;;;;;;;;;;29.67;41.27;99869.97;4993343;28;974;-57
2023/09/14 09:30:10;;;;;;;;;;;;;;;29.69;42.19;99873.06;4993149;28;872;-57
2023/09/14 09:32:39;;;;;;;;;;;;;;;29.85;43.11;99860.72;4993534;28;1156;-57
2023/09/14 09:35:18;;;;;;;;;;;;;;;29.92;42.58;99867.91;4993201;28;824;-57
2023/09/14 09:37:46;;;;;;;;;;;;;;;29.87;42.97;99860.97;4992983;28;832;-57
2023/09/14 09:40:17;;;;;;;;;;;;;;;29.91;42.49;99858.59;4992982;28;856;-57
2023/09/14 09:42:46;;;;;;;;;;;;;;;30.04;43.06;99854.25;4993047;28;824;-57
2023/09/14 09:45:13;;;;;;;;;;;;;;;30.20;41.92;99844.72;4993164;28;1890;-57
2023/09/14 09:47:41;;;;;;;;;;;;;;;30.33;41.54;99849.75;4993151;28;868;-57
2023/09/14 09:50:12;;;;;;;;;;;;;;;30.41;41.67;99842.13;4993071;28;856;-57
2023/09/14 09:52:40;;;;;;;;;;;;;;;30.44;40.82;99838.19;4992877;28;832;-57
2023/09/14 09:55:08;;;;;;;;;;;;;;;30.36;40.12;99840.13;4975431;28;864;-57
2023/09/14 09:57:36;;;;;;;;;;;;;;;30.53;39.86;99840.66;4992645;28;829;-57
2023/09/14 10:00:13;;;;;;;;;;;;;;;30.76;39.43;99828.88;4992735;28;828;-57
2023/09/14 10:02:41;;;;;;;;;;;;;;;30.90;40.06;99836.22;4974672;28;939;-57
2023/09/14 10:05:08;;;;;;;;;;;;;;;31.14;38.74;99837.34;4992588;28;1886;-57
2023/09/14 10:07:40;;;;;;;;;;;;;;;31.26;37.87;99832.19;4992721;28;887;-57
2023/09/14 10:10:08;;;;;;;;;;;;;;;31.20;36.14;99837.28;4992574;28;842;-57
2023/09/14 10:12:39;;;;;;;;;;;;;;;31.12;36.30;99832.19;4992954;28;1250;-57
2023/09/14 10:15:10;;;;;;;;;;;;;;;31.06;35.31;99827.91;4992546;28;884;-57
2023/09/14 10:17:37;;;;;;;;;;;;;;;31.21;35.44;99819.56;4992617;28;821;-57
2023/09/14 10:20:08;;;;;;;;;;;;;;;31.39;35.18;99817.97;4992429;28;817;-57
2023/09/14 10:22:37;;;;;;;;;;;;;;;31.32;34.73;99816.53;4992647;28;844;-58
2023/09/14 10:25:06;;;;;;;;;;;;;;;31.28;34.94;99826.72;4992319;28;1970;-57
2023/09/14 10:27:33;;;;;;;;;;;;;;;31.10;34.62;99822.63;4975263;28;863;-58
2023/09/14 10:30:03;;;;;;;;;;;;;;;31.21;34.43;99822.44;4992296;28;1283;-57
2023/09/14 10:32:32;;;;;;;;;;;;;;;31.66;35.09;99815.88;4992386;28;813;-57
2023/09/14 10:35:01;;;;;;;;;;;;;;;32.03;34.13;99816.97;4992299;28;845;-57
2023/09/14 10:37:28;;;;;;;;;;;;;;;32.09;32.89;99811.13;4992386;28;896;-57
2023/09/14 10:39:55;;;;;;;;;;;;;;;31.78;33.12;99807.84;4992186;28;864;-57
2023/09/14 10:42:22;;;;;;;;;;;;;;;31.93;33.60;99805.19;4992338;28;852;-57
2023/09/14 10:44:49;;;;;;;;;;;;;;;31.92;32.98;99808.59;4992174;28;1890;-58
2023/09/14 10:47:17;;;;;;;;;;;;;;;31.87;32.57;99807.41;4992368;28;926;-57
2023/09/14 10:49:44;;;;;;;;;;;;;;;32.10;32.48;99804.09;4992034;28;812;-57
2023/09/14 10:52:12;;;;;;;;;;;;;;;32.25;31.45;99798.53;4992203;28;879;-58
2023/09/14 10:54:39;;;;;;;;;;;;;;;32.20;31.07;99790.88;4992223;28;903;-57
2023/09/14 10:57:22;;;;;;;;;;;;;;;32.26;30.80;99791.50;4992198;28;834;-57
2023/09/14 10:59:51;;;;;;;;;;;;;;;32.45;31.47;99782.72;4992206;28;876;-57
2023/09/14 11:02:37;;;;;;;;;;;;;;;32.54;31.10;99779.44;4992150;28;895;-57
2023/09/14 11:05:13;;;;;;;;;;;;;;;32.45;30.43;99781.97;4992124;28;1883;-57
2023/09/14 11:07:41;;;;;;;;;;;;;;;32.39;30.35;99782.13;4991982;28;876;-57
2023/09/14 11:10:09;;;;;;;;;;;;;;;32.58;30.29;99775.44;4991865;28;836;-58
2023/09/14 11:12:36;;;;;;;;;;;;;;;32.66;30.47;99776.28;4992119;28;930;-58
2023/09/14 11:15:16;;;;;;;;;;;;;;;32.61;30.33;99769.38;4995271;28;1356;-57
2023/09/14 11:17:44;;;;;;;;;;;;;;;32.78;29.87;99768.94;4995761;28;879;-57
2023/09/14 11:20:20;;;;;;;;;;;;;;;33.03;29.20;99768.56;4978168;28;1383;-58
2023/09/14 11:22:48;;;;;;;;;;;;;;;33.30;28.65;99763.41;4978173;28;2062;-58
2023/09/14 11:25:28;;;;;;;;;;;;;;;33.59;28.52;99764.16;4995570;28;2370;-58
2023/09/14 11:27:56;;;;;;;;;;;;;;;33.73;28.53;99764.81;4995520;28;792;-58
2023/09/14 11:30:24;;;;;;;;;;;;;;;33.75;28.10;99754.31;4995606;28;859;-57
2023/09/14 11:32:52;;;;;;;;;;;;;;;33.69;27.99;99761.53;4995438;28;908;-58
2023/09/14 11:35:32;;;;;;;;;;;;;;;33.85;27.21;99753.78;4978110;28;876;-58
2023/09/14 11:38:02;;;;;;;;;;;;;;;34.12;27.12;99757.91;4995208;28;872;-58
2023/09/14 11:40:33;;;;;;;;;;;;;;;33.91;26.77;99757.25;4995557;28;832;-58
2023/09/14 11:43:26;;;;;;;;;;;;;;;33.92;28.33;99750.94;4995265;28;883;-58
2023/09/14 11:46:04;;;;;;;;;;;;;;;33.96;29.27;99750.56;4995225;28;1882;-58
2023/09/14 11:48:38;;;;;;;;;;;;;;;33.93;28.64;99748.84;4995293;28;859;-58
2023/09/14 11:51:08;;;;;;;;;;;;;;;34.30;29.14;99749.53;4995344;28;872;-57
2023/09/14 11:53:36;;;;;;;;;;;;;;;34.33;29.12;99734.03;4995100;28;832;-58
2023/09/14 11:56:03;;;;;;;;;;;;;;;34.14;28.70;99743.00;4995114;28;915;-58
2023/09/14 11:58:37;;;;;;;;;;;;;;;34.41;28.58;99736.94;4994987;28;881;-58
2023/09/14 12:01:04;;;;;;;;;;;;;;;34.33;29.37;99739.78;4995008;28;951;-57
2023/09/14 12:03:31;;;;;;;;;;;;;;;34.35;29.99;99748.56;4995246;28;808;-58
2023/09/14 12:05:58;;;;;;;;;;;;;;;34.47;29.17;99737.50;4994816;28;1878;-57
2023/09/14 12:08:25;;;;;;;;;;;;;;;34.31;29.82;99743.25;4994670;28;892;-57
2023/09/14 12:10:54;;;;;;;;;;;;;;;33.93;29.64;99740.25;4994832;28;868;-58
2023/09/14 12:13:21;;;;;;;;;;;;;;;33.97;30.36;99744.28;4994691;28;1421;-58
2023/09/14 12:15:56;;;;;;;;;;;;;;;34.38;30.12;99738.84;4994771;28;824;-58
2023/09/14 12:18:36;;;;;;;;;;;;;;;34.24;29.87;99735.38;4994631;28;928;-57
2023/09/14 12:21:04;;;;;;;;;;;;;;;33.93;30.09;99738.16;4994596;28;888;-57
2023/09/14 12:23:32;;;;;;;;;;;;;;;33.53;31.30;99734.91;4994458;28;891;-57
2023/09/14 12:25:59;;;;;;;;;;;;;;;33.64;31.44;99742.44;4993686;28;1907;-57
2023/09/14 12:28:26;;;;;;;;;;;;;;;33.64;31.90;99734.59;4994409;28;825;-58
2023/09/14 12:30:53;;;;;;;;;;;;;;;33.61;32.22;99735.75;4994440;28;836;-58
2023/09/14 12:33:20;;;;;;;;;;;;;;;33.74;32.27;99732.72;4994294;28;914;-57
2023/09/14 12:35:47;;;;;;;;;;;;;;;33.57;32.51;99732.44;4994347;28;847;-57
2023/09/14 12:38:14;;;;;;;;;;;;;;;33.51;32.35;99723.25;4994325;28;880;-58
2023/09/14 12:40:41;;;;;;;;;;;;;;;33.27;32.39;99730.19;4994158;28;931;-57
2023/09/14 12:43:08;;;;;;;;;;;;;;;32.93;33.10;99726.13;4994110;28;870;-57
2023/09/14 12:45:36;;;;;;;;;;;;;;;32.79;33.72;99727.53;4994143;28;1894;-57
2023/09/14 12:48:04;;;;;;;;;;;;;;;32.82;34.08;99723.56;4994220;28;865;-57
2023/09/14 12:50:35;;;;;;;;;;;;;;;32.86;33.38;99720.34;4994058;28;927;-57
2023/09/14 12:53:09;;;;;;;;;;;;;;;32.51;33.89;99708.22;4993965;28;947;-57
2023/09/14 12:55:46;;;;;;;;;;;;;;;32.54;34.49;99707.91;4993803;28;1282;-57
2023/09/14 12:58:17;;;;;;;;;;;;;;;32.63;34.39;99708.75;4993998;28;960;-57
2023/09/14 13:00:45;;;;;;;;;;;;;;;32.29;33.75;99707.47;4994021;28;892;-57
2023/09/14 13:03:13;;;;;;;;;;;;;;;31.86;35.59;99710.81;4976624;28;855;-57
2023/09/14 13:05:41;;;;;;;;;;;;;;;31.99;36.26;99710.03;4993791;28;1890;-57
2023/09/14 13:08:09;;;;;;;;;;;;;;;31.79;36.09;99706.53;4993639;28;837;-57
2023/09/14 13:10:37;;;;;;;;;;;;;;;31.79;36.86;99712.25;4993624;28;868;-57
2023/09/14 13:13:10;;;;;;;;;;;;;;;32.10;36.26;99706.91;4993679;28;1380;-57
2023/09/14 13:15:41;;;;;;;;;;;;;;;32.37;36.15;99695.31;4993661;28;848;-57
2023/09/14 13:18:10;;;;;;;;;;;;;;;32.18;35.47;99704.09;4993441;28;838;-57
2023/09/14 13:20:45;;;;;;;;;;;;;;;31.87;36.70;99704.53;4993586;28;824;-57
2023/09/14 13:23:12;;;;;;;;;;;;;;;31.82;36.68;99696.09;4993476;28;837;-57
2023/09/14 13:25:39;;;;;;;;;;;;;;;31.60;37.62;99700.19;4993290;28;1973;-57
2023/09/14 13:28:06;;;;;;;;;;;;;;;31.54;38.08;99703.19;4993415;28;891;-57
2023/09/14 13:30:32;;;;;;;;;;;;;;;31.36;38.19;99704.84;4993218;28;818;-57
2023/09/14 13:32:59;;;;;;;;;;;;;;;31.17;38.09;99701.34;4993135;28;824;-57
2023/09/14 13:35:26;;;;;;;;;;;;;;;31.07;38.14;99696.09;4993264;28;899;-57
2023/09/14 13:37:56;;;;;;;;;;;;;;;31.04;38.53;99694.31;4993117;28;884;-57
2023/09/14 13:40:24;;;;;;;;;;;;;;;30.98;39.61;99696.50;4993034;28;1030;-57